createdAt,value
2017-12-27T00:00:03.262Z,2.05
2017-12-27T00:02:36.223Z,2.04
2017-12-27T00:05:09.309Z,1.96
2017-12-27T00:07:42.253Z,1.92
2017-12-27T00:10:15.259Z,1.93
2017-12-27T00:12:48.349Z,1.92
2017-12-27T00:15:21.266Z,1.94
2017-12-27T00:17:54.219Z,1.97
2017-12-27T00:23:34.538Z,2.03
2017-12-27T00:26:07.515Z,2.01
2017-12-27T00:28:40.540Z,2.02
2017-12-27T00:31:09.810Z,1.98
2017-12-27T00:33:37.289Z,1.87
2017-12-27T00:36:04.775Z,1.83
2017-12-27T00:38:33.125Z,1.84
2017-12-27T00:41:00.676Z,1.71
2017-12-27T00:43:28.149Z,1.67
2017-12-27T00:45:55.671Z,1.71
2017-12-27T00:48:23.159Z,1.66
2017-12-27T00:50:50.626Z,1.66
2017-12-27T00:53:18.123Z,1.60
2017-12-27T00:55:45.603Z,1.60
2017-12-27T00:58:13.073Z,1.53
2017-12-27T01:00:40.620Z,1.61
2017-12-27T01:03:08.094Z,1.60
2017-12-27T01:05:35.599Z,1.55
2017-12-27T01:08:03.156Z,1.47
2017-12-27T01:10:30.642Z,1.46
2017-12-27T01:12:58.161Z,1.42
2017-12-27T01:15:25.633Z,1.43
2017-12-27T01:17:53.141Z,1.38
2017-12-27T01:20:20.607Z,1.36
2017-12-27T01:22:48.106Z,1.49
2017-12-27T01:25:15.611Z,1.42
2017-12-27T01:27:43.113Z,1.37
2017-12-27T01:30:10.604Z,1.45
2017-12-27T01:32:38.100Z,1.46
2017-12-27T01:35:05.592Z,1.49
2017-12-27T01:37:33.116Z,1.45
2017-12-27T01:40:00.616Z,1.44
2017-12-27T01:42:28.452Z,1.35
2017-12-27T01:44:55.945Z,1.33
2017-12-27T01:47:23.413Z,1.25
2017-12-27T01:49:50.916Z,1.31
2017-12-27T01:52:19.397Z,1.30
2017-12-27T01:54:46.895Z,1.28
2017-12-27T01:57:14.431Z,1.35
2017-12-27T01:59:42.002Z,1.36
2017-12-27T02:02:09.478Z,1.37
2017-12-27T02:04:39.985Z,1.32
2017-12-27T02:07:07.488Z,1.33
2017-12-27T02:09:34.947Z,1.31
2017-12-27T02:12:02.489Z,1.22
2017-12-27T02:14:29.987Z,1.24
2017-12-27T02:16:57.501Z,1.25
2017-12-27T02:19:24.983Z,1.32
2017-12-27T02:21:52.557Z,1.32
2017-12-27T02:24:20.028Z,1.27
2017-12-27T02:26:47.516Z,1.24
2017-12-27T02:29:15.042Z,1.24
2017-12-27T02:31:42.523Z,1.53
2017-12-27T02:34:09.992Z,1.40
2017-12-27T02:36:37.503Z,1.34
2017-12-27T02:39:05.031Z,1.31
2017-12-27T02:41:32.505Z,1.31
2017-12-27T02:44:00.003Z,1.33
2017-12-27T02:46:27.484Z,1.37
2017-12-27T02:48:54.996Z,1.35
2017-12-27T02:51:22.496Z,1.42
2017-12-27T02:53:50.015Z,1.37
2017-12-27T02:56:17.643Z,1.40
2017-12-27T02:58:45.183Z,1.44
2017-12-27T03:01:12.664Z,1.48
2017-12-27T03:03:40.107Z,1.50
2017-12-27T03:06:07.629Z,1.47
2017-12-27T03:08:35.612Z,1.54
2017-12-27T03:11:03.184Z,1.60
2017-12-27T03:13:30.663Z,1.64
2017-12-27T03:15:58.154Z,1.74
2017-12-27T03:18:25.630Z,1.85
2017-12-27T03:20:53.142Z,1.84
2017-12-27T03:23:20.613Z,1.82
2017-12-27T03:25:48.135Z,1.86
2017-12-27T03:28:15.779Z,1.82
2017-12-27T03:30:43.255Z,1.87
2017-12-27T03:33:10.725Z,1.96
2017-12-27T03:35:38.208Z,1.98
2017-12-27T03:38:05.690Z,1.99
2017-12-27T03:40:33.304Z,2.11
2017-12-27T03:43:00.809Z,2.05
2017-12-27T03:45:28.286Z,2.03
2017-12-27T03:47:55.784Z,1.97
2017-12-27T03:50:23.288Z,2.00
2017-12-27T03:52:50.859Z,2.05
2017-12-27T03:55:19.099Z,2.11
2017-12-27T03:57:46.600Z,2.13
2017-12-27T04:00:14.115Z,1.99
2017-12-27T04:02:41.629Z,1.88
2017-12-27T04:05:09.128Z,1.87
2017-12-27T04:07:36.587Z,1.92
2017-12-27T04:10:04.081Z,1.93
2017-12-27T04:12:31.713Z,1.94
2017-12-27T04:14:59.188Z,1.94
2017-12-27T04:17:26.651Z,1.94
2017-12-27T04:19:54.137Z,1.99
2017-12-27T04:22:21.614Z,2.03
2017-12-27T04:24:49.216Z,2.08
2017-12-27T04:27:16.811Z,2.22
2017-12-27T04:29:44.275Z,2.15
2017-12-27T04:32:11.742Z,2.03
2017-12-27T04:34:39.220Z,1.99
2017-12-27T04:37:06.685Z,2.02
2017-12-27T04:39:34.142Z,2.05
2017-12-27T04:42:01.641Z,2.08
2017-12-27T04:44:30.228Z,1.91
2017-12-27T04:46:57.727Z,1.85
2017-12-27T04:49:25.227Z,1.96
2017-12-27T04:51:52.732Z,1.90
2017-12-27T04:54:20.212Z,1.85
2017-12-27T04:56:47.709Z,1.89
2017-12-27T04:59:15.164Z,1.92
2017-12-27T05:01:42.628Z,1.89
2017-12-27T05:04:10.152Z,1.92
2017-12-27T05:06:37.616Z,1.98
2017-12-27T05:09:05.092Z,1.99
2017-12-27T05:11:32.621Z,1.90
2017-12-27T05:14:00.116Z,1.93
2017-12-27T05:16:27.620Z,1.94
2017-12-27T05:18:56.413Z,1.86
2017-12-27T05:21:23.943Z,1.87
2017-12-27T05:23:51.446Z,1.87
2017-12-27T05:26:18.943Z,1.84
2017-12-27T05:28:46.411Z,1.71
2017-12-27T05:31:13.877Z,1.73
2017-12-27T05:33:41.387Z,1.68
2017-12-27T05:45:49.968Z,1.69
2017-12-27T05:48:17.423Z,1.65
2017-12-27T05:50:44.909Z,1.68
2017-12-27T05:53:12.440Z,1.67
2017-12-27T05:55:39.894Z,1.71
2017-12-27T05:58:07.353Z,1.78
2017-12-27T06:00:34.858Z,1.75
2017-12-27T06:03:02.325Z,1.79
2017-12-27T06:05:29.812Z,1.75
2017-12-27T06:07:57.385Z,1.74
2017-12-27T06:10:24.889Z,1.76
2017-12-27T06:12:52.909Z,1.73
2017-12-27T06:15:20.390Z,1.67
2017-12-27T06:17:47.865Z,1.65
2017-12-27T06:20:15.832Z,1.69
2017-12-27T06:22:43.343Z,1.74
2017-12-27T06:25:10.823Z,1.69
2017-12-27T06:27:38.329Z,1.65
2017-12-27T06:30:05.825Z,1.65
2017-12-27T06:32:33.281Z,1.72
2017-12-27T06:35:00.740Z,1.72
2017-12-27T06:37:28.275Z,1.72
2017-12-27T06:39:55.728Z,1.75
2017-12-27T06:42:23.184Z,1.77
2017-12-27T06:44:50.657Z,1.78
2017-12-27T06:47:18.118Z,1.79
2017-12-27T06:49:45.583Z,1.83
2017-12-27T06:52:13.050Z,1.85
2017-12-27T06:54:40.528Z,1.83
2017-12-27T06:57:07.983Z,1.91
2017-12-27T06:59:35.484Z,1.85
2017-12-27T07:02:02.982Z,1.84
2017-12-27T07:04:30.435Z,1.84
2017-12-27T07:06:57.915Z,1.96
2017-12-27T07:09:25.473Z,1.97
2017-12-27T07:11:53.023Z,1.93
2017-12-27T07:14:20.591Z,1.97
2017-12-27T07:16:48.131Z,2.03
2017-12-27T07:19:15.603Z,2.01
2017-12-27T07:21:43.059Z,2.00
2017-12-27T07:24:10.524Z,2.00
2017-12-27T07:26:37.987Z,2.07
2017-12-27T07:29:05.442Z,2.17
2017-12-27T07:31:33.483Z,2.23
2017-12-27T07:34:00.939Z,2.39
2017-12-27T07:36:28.702Z,2.30
2017-12-27T07:38:56.239Z,2.34
2017-12-27T07:41:23.734Z,2.34
2017-12-27T07:43:51.203Z,2.37
2017-12-27T07:46:18.674Z,2.48
2017-12-27T07:48:46.156Z,2.61
2017-12-27T07:51:13.619Z,2.59
2017-12-27T07:53:41.106Z,2.55
2017-12-27T07:56:08.564Z,2.50
2017-12-27T07:58:36.054Z,2.42
2017-12-27T08:01:03.591Z,2.31
2017-12-27T08:03:31.090Z,2.26
2017-12-27T08:05:58.552Z,2.31
2017-12-27T08:08:26.047Z,2.31
2017-12-27T08:10:53.501Z,2.29
2017-12-27T08:13:20.974Z,2.36
2017-12-27T08:15:48.448Z,2.38
2017-12-27T08:18:16.486Z,2.51
2017-12-27T08:20:43.945Z,2.47
2017-12-27T08:23:11.424Z,2.54
2017-12-27T08:25:38.944Z,2.59
2017-12-27T08:28:06.462Z,2.65
2017-12-27T08:30:34.640Z,2.70
2017-12-27T08:33:02.131Z,2.84
2017-12-27T08:35:30.240Z,2.89
2017-12-27T08:37:57.768Z,2.94
2017-12-27T08:40:25.211Z,2.97
2017-12-27T08:42:52.666Z,3.01
2017-12-27T08:45:20.211Z,2.91
2017-12-27T08:47:47.661Z,3.00
2017-12-27T08:50:15.578Z,3.19
2017-12-27T08:52:43.065Z,3.35
2017-12-27T08:55:10.520Z,3.52
2017-12-27T08:57:37.960Z,3.66
2017-12-27T09:00:05.430Z,3.61
2017-12-27T09:02:32.952Z,3.65
2017-12-27T09:05:00.427Z,3.80
2017-12-27T09:07:27.887Z,3.90
2017-12-27T09:09:55.363Z,4.00
2017-12-27T09:12:22.850Z,4.14
2017-12-27T09:14:50.424Z,4.15
2017-12-27T09:17:17.870Z,4.09
2017-12-27T09:19:45.331Z,4.19
2017-12-27T09:22:12.804Z,4.41
2017-12-27T09:24:40.263Z,4.59
2017-12-27T09:27:07.837Z,4.75
2017-12-27T09:29:35.328Z,4.71
2017-12-27T09:32:02.788Z,4.84
2017-12-27T09:34:30.282Z,4.97
2017-12-27T09:36:57.764Z,4.97
2017-12-27T09:39:25.246Z,5.15
2017-12-27T09:41:52.707Z,5.25
2017-12-27T09:44:20.175Z,5.15
2017-12-27T09:46:47.622Z,5.20
2017-12-27T09:49:15.094Z,5.14
2017-12-27T09:51:42.583Z,5.17
2017-12-27T09:54:10.143Z,5.27
2017-12-27T09:56:37.750Z,5.18
2017-12-27T09:59:05.241Z,5.27
2017-12-27T10:01:32.709Z,5.34
2017-12-27T10:04:00.281Z,5.09
2017-12-27T10:06:27.939Z,5.09
2017-12-27T10:08:55.491Z,5.14
2017-12-27T10:11:22.939Z,5.22
2017-12-27T10:13:50.445Z,5.39
2017-12-27T10:16:17.906Z,5.58
2017-12-27T10:18:45.372Z,5.66
2017-12-27T10:21:13.052Z,5.59
2017-12-27T10:23:40.508Z,5.65
2017-12-27T10:26:07.970Z,5.77
2017-12-27T10:28:36.842Z,5.83
2017-12-27T10:31:04.299Z,5.89
2017-12-27T10:33:31.768Z,5.98
2017-12-27T10:35:59.231Z,5.91
2017-12-27T10:38:26.743Z,5.83
2017-12-27T10:40:54.191Z,5.76
2017-12-27T10:43:21.658Z,5.70
2017-12-27T10:45:49.151Z,5.71
2017-12-27T10:48:16.616Z,5.73
2017-12-27T10:50:44.088Z,5.83
2017-12-27T10:53:11.785Z,6.09
2017-12-27T10:55:39.252Z,6.28
2017-12-27T10:58:06.748Z,6.45
2017-12-27T11:00:34.226Z,6.66
2017-12-27T11:03:01.701Z,6.90
2017-12-27T11:05:29.187Z,7.05
2017-12-27T11:07:56.647Z,7.26
2017-12-27T11:10:24.110Z,7.34
2017-12-27T11:12:51.631Z,7.55
2017-12-27T11:15:19.091Z,7.70
2017-12-27T11:17:46.591Z,8.05
2017-12-27T11:20:14.192Z,8.27
2017-12-27T11:22:41.711Z,8.53
2017-12-27T11:25:09.175Z,8.78
2017-12-27T11:27:36.723Z,8.99
2017-12-27T11:30:04.219Z,9.29
2017-12-27T11:32:31.990Z,9.50
2017-12-27T11:34:59.515Z,9.67
2017-12-27T11:37:26.987Z,9.84
2017-12-27T11:39:54.652Z,10.05
2017-12-27T11:42:22.135Z,10.21
2017-12-27T11:44:49.639Z,10.44
2017-12-27T11:47:17.118Z,10.68
2017-12-27T11:49:44.600Z,10.78
2017-12-27T11:52:12.084Z,10.92
2017-12-27T11:54:39.570Z,10.93
2017-12-27T11:57:07.071Z,11.04
2017-12-27T11:59:34.536Z,11.08
2017-12-27T12:02:02.027Z,11.02
2017-12-27T12:04:29.524Z,10.91
2017-12-27T12:06:56.999Z,10.84
2017-12-27T12:09:24.505Z,10.74
2017-12-27T12:11:51.980Z,10.60
2017-12-27T12:14:19.442Z,10.53
2017-12-27T12:16:46.957Z,10.37
2017-12-27T12:19:14.449Z,10.35
2017-12-27T12:21:41.927Z,10.26
2017-12-27T12:24:09.950Z,10.15
2017-12-27T12:26:37.480Z,10.08
2017-12-27T12:29:04.959Z,10.05
2017-12-27T12:31:32.441Z,10.06
2017-12-27T12:33:59.936Z,10.03
2017-12-27T12:36:27.633Z,10.06
2017-12-27T12:38:55.336Z,10.07
2017-12-27T12:41:22.846Z,10.12
2017-12-27T12:43:50.324Z,10.08
2017-12-27T12:46:18.115Z,10.17
2017-12-27T12:48:45.617Z,10.03
2017-12-27T12:51:13.093Z,10.16
2017-12-27T12:53:40.595Z,10.13
2017-12-27T12:56:08.187Z,10.05
2017-12-27T12:58:36.304Z,9.95
2017-12-27T13:01:03.808Z,9.90
2017-12-27T13:03:31.282Z,9.86
2017-12-27T13:05:58.758Z,9.75
2017-12-27T13:08:26.257Z,9.66
2017-12-27T13:10:54.195Z,9.74
2017-12-27T13:13:22.520Z,9.70
2017-12-27T13:15:50.088Z,9.61
2017-12-27T13:18:17.550Z,9.57
2017-12-27T13:20:45.044Z,9.43
2017-12-27T13:23:12.508Z,9.42
2017-12-27T13:25:39.970Z,9.38
2017-12-27T13:28:07.450Z,9.34
2017-12-27T13:30:34.937Z,9.37
2017-12-27T13:33:02.631Z,9.37
2017-12-27T13:35:30.099Z,9.35
2017-12-27T13:37:57.633Z,9.30
2017-12-27T13:40:25.145Z,9.38
2017-12-27T13:42:52.891Z,9.32
2017-12-27T13:45:20.482Z,9.28
2017-12-27T13:47:47.956Z,9.23
2017-12-27T13:50:15.782Z,9.27
2017-12-27T13:52:43.313Z,9.26
2017-12-27T13:55:10.913Z,9.20
2017-12-27T13:57:38.381Z,9.26
2017-12-27T14:00:06.595Z,9.21
2017-12-27T14:02:34.246Z,9.21
2017-12-27T14:05:01.748Z,9.18
2017-12-27T14:07:29.255Z,9.28
2017-12-27T14:09:56.719Z,9.29
2017-12-27T14:12:25.399Z,9.23
2017-12-27T14:14:52.963Z,9.13
2017-12-27T14:17:20.519Z,9.19
2017-12-27T14:19:48.031Z,9.17
2017-12-27T14:22:15.660Z,9.11
2017-12-27T14:24:43.269Z,9.12
2017-12-27T14:27:10.730Z,8.96
2017-12-27T14:29:38.215Z,8.97
2017-12-27T14:32:05.688Z,9.10
2017-12-27T14:34:33.160Z,9.18
2017-12-27T14:37:00.658Z,9.17
2017-12-27T14:39:28.153Z,9.16
2017-12-27T14:41:55.624Z,9.06
2017-12-27T14:44:23.095Z,9.02
2017-12-27T14:46:50.559Z,9.00
2017-12-27T14:49:18.042Z,9.00
2017-12-27T14:51:45.551Z,8.86
2017-12-27T14:54:13.031Z,8.87
2017-12-27T14:56:40.647Z,8.85
2017-12-27T14:59:08.211Z,8.78
2017-12-27T15:01:35.682Z,8.77
2017-12-27T15:04:03.148Z,8.81
2017-12-27T15:06:30.683Z,8.76
2017-12-27T15:08:58.171Z,8.76
2017-12-27T15:11:25.672Z,8.78
2017-12-27T15:13:53.183Z,8.80
2017-12-27T15:16:20.681Z,8.80
2017-12-27T15:18:48.648Z,8.74
2017-12-27T15:21:16.209Z,8.83
2017-12-27T15:23:43.679Z,8.90
2017-12-27T15:26:11.163Z,8.89
2017-12-27T15:28:38.939Z,8.92
2017-12-27T15:31:06.482Z,8.88
2017-12-27T15:33:33.960Z,8.82
2017-12-27T15:36:01.491Z,8.78
2017-12-27T15:38:28.995Z,8.81
2017-12-27T15:40:56.464Z,8.84
2017-12-27T15:43:24.670Z,8.84
2017-12-27T15:45:52.142Z,8.81
2017-12-27T15:48:19.618Z,8.88
2017-12-27T15:50:47.080Z,8.92
2017-12-27T15:53:14.551Z,8.92
2017-12-27T15:55:42.039Z,8.95
2017-12-27T15:58:09.523Z,8.93
2017-12-27T16:00:37.069Z,8.93
2017-12-27T16:03:04.583Z,8.96
2017-12-27T16:05:32.051Z,8.94
2017-12-27T16:07:59.565Z,8.92
2017-12-27T16:10:27.035Z,8.96
2017-12-27T16:12:54.520Z,9.00
2017-12-27T16:15:22.399Z,9.04
2017-12-27T16:17:49.958Z,9.00
2017-12-27T16:20:17.527Z,8.94
2017-12-27T16:22:45.041Z,8.90
2017-12-27T16:25:12.552Z,8.97
2017-12-27T16:27:40.008Z,8.96
2017-12-27T16:30:07.478Z,8.95
2017-12-27T16:32:35.111Z,8.98
2017-12-27T16:35:02.664Z,9.00
2017-12-27T16:37:30.143Z,9.00
2017-12-27T16:39:57.623Z,9.02
2017-12-27T16:42:25.114Z,9.04
2017-12-27T16:44:52.655Z,9.07
2017-12-27T16:47:20.140Z,9.01
2017-12-27T16:49:47.627Z,9.08
2017-12-27T16:52:15.187Z,8.97
2017-12-27T16:54:42.811Z,8.89
2017-12-27T16:57:10.285Z,8.87
2017-12-27T16:59:37.764Z,8.91
2017-12-27T17:02:05.235Z,8.88
2017-12-27T17:04:32.703Z,8.94
2017-12-27T17:07:00.568Z,9.03
2017-12-27T17:09:28.037Z,8.95
2017-12-27T17:11:55.498Z,9.05
2017-12-27T17:14:22.979Z,9.04
2017-12-27T17:16:50.448Z,9.08
2017-12-27T17:19:17.943Z,8.98
2017-12-27T17:21:45.416Z,9.10
2017-12-27T17:24:12.912Z,9.10
2017-12-27T17:26:40.394Z,9.12
2017-12-27T17:29:07.872Z,9.09
2017-12-27T17:31:35.370Z,9.11
2017-12-27T17:34:02.860Z,9.14
2017-12-27T17:36:30.327Z,9.12
2017-12-27T17:38:57.802Z,9.16
2017-12-27T17:41:25.267Z,9.17
2017-12-27T17:43:52.740Z,9.24
2017-12-27T17:46:20.228Z,9.19
2017-12-27T17:48:47.815Z,9.28
2017-12-27T17:51:15.381Z,9.32
2017-12-27T17:53:42.890Z,9.33
2017-12-27T17:56:10.377Z,9.38
2017-12-27T17:58:37.859Z,9.32
2017-12-27T18:01:05.341Z,9.36
2017-12-27T18:03:32.827Z,9.42
2017-12-27T18:06:00.288Z,9.46
2017-12-27T18:08:27.763Z,9.46
2017-12-27T18:10:55.261Z,9.41
2017-12-27T18:13:22.731Z,9.33
2017-12-27T18:15:50.188Z,9.31
2017-12-27T18:18:17.668Z,9.41
2017-12-27T18:20:45.147Z,9.41
2017-12-27T18:23:12.623Z,9.38
2017-12-27T18:25:40.108Z,9.23
2017-12-27T18:28:07.581Z,9.25
2017-12-27T18:30:35.087Z,9.17
2017-12-27T18:33:02.551Z,9.09
2017-12-27T18:35:30.055Z,9.07
2017-12-27T18:37:57.557Z,9.10
2017-12-27T18:40:25.032Z,9.10
2017-12-27T18:42:52.517Z,9.16
2017-12-27T18:45:20.004Z,9.20
2017-12-27T18:47:48.654Z,9.24
2017-12-27T18:50:16.385Z,9.21
2017-12-27T18:52:43.886Z,9.26
2017-12-27T18:55:11.360Z,9.17
2017-12-27T18:57:38.849Z,9.23
2017-12-27T19:00:06.310Z,9.14
2017-12-27T19:02:33.990Z,9.15
2017-12-27T19:05:01.488Z,9.21
2017-12-27T19:07:28.975Z,9.22
2017-12-27T19:09:56.635Z,9.16
2017-12-27T19:12:24.103Z,9.13
2017-12-27T19:14:51.578Z,9.18
2017-12-27T19:17:19.232Z,9.27
2017-12-27T19:19:46.737Z,9.30
2017-12-27T19:22:14.321Z,9.39
2017-12-27T19:24:41.844Z,9.39
2017-12-27T19:27:09.364Z,9.49
2017-12-27T19:29:36.908Z,9.46
2017-12-27T19:32:04.410Z,9.51
2017-12-27T19:34:31.873Z,9.46
2017-12-27T19:36:59.374Z,9.47
2017-12-27T19:39:26.943Z,9.54
2017-12-27T19:41:54.493Z,9.57
2017-12-27T19:44:22.052Z,9.58
2017-12-27T19:46:49.629Z,9.60
2017-12-27T19:49:17.207Z,9.58
2017-12-27T19:51:44.846Z,9.55
2017-12-27T19:54:12.469Z,9.56
2017-12-27T19:56:40.170Z,9.58
2017-12-27T19:59:07.880Z,9.63
2017-12-27T20:01:35.586Z,9.75
2017-12-27T20:04:03.349Z,9.79
2017-12-27T20:06:31.225Z,9.84
2017-12-27T20:08:58.991Z,9.96
2017-12-27T20:11:26.672Z,10.00
2017-12-27T20:13:54.460Z,10.02
2017-12-27T20:16:22.209Z,9.98
2017-12-27T20:18:50.408Z,9.97
2017-12-27T20:21:18.264Z,10.02
2017-12-27T20:23:46.012Z,9.96
2017-12-27T20:26:13.761Z,9.95
2017-12-27T20:28:41.527Z,9.99
2017-12-27T20:31:09.282Z,9.98
2017-12-27T20:33:37.070Z,9.97
2017-12-27T20:36:04.892Z,10.00
2017-12-27T20:38:32.813Z,10.02
2017-12-27T20:41:00.582Z,10.03
2017-12-27T20:43:28.391Z,9.98
2017-12-27T20:45:56.210Z,9.93
2017-12-27T20:48:24.205Z,9.94
2017-12-27T20:50:52.044Z,9.95
2017-12-27T20:53:19.841Z,9.92
2017-12-27T20:55:47.543Z,9.94
2017-12-27T20:58:15.856Z,9.97
2017-12-27T21:00:43.691Z,9.96
2017-12-27T21:03:11.441Z,9.94
2017-12-27T21:05:39.204Z,9.85
2017-12-27T21:08:07.497Z,9.93
2017-12-27T21:10:35.193Z,9.86
2017-12-27T21:13:03.025Z,9.83
2017-12-27T21:15:30.669Z,9.80
2017-12-27T21:17:58.275Z,9.69
2017-12-27T21:20:25.927Z,9.56
2017-12-27T21:22:53.522Z,9.62
2017-12-27T21:25:21.149Z,9.66
2017-12-27T21:27:48.714Z,9.58
2017-12-27T21:30:16.284Z,9.72
2017-12-27T21:32:43.788Z,9.69
2017-12-27T21:35:11.325Z,9.60
2017-12-27T21:37:38.836Z,9.59
2017-12-27T21:40:06.337Z,9.57
2017-12-27T21:42:33.903Z,9.58
2017-12-27T21:45:01.419Z,9.52
2017-12-27T21:47:34.294Z,9.43
2017-12-27T21:50:01.776Z,9.45
2017-12-27T21:52:29.267Z,9.44
2017-12-27T21:54:56.796Z,9.45
2017-12-27T21:57:24.992Z,9.48
2017-12-27T21:59:57.971Z,9.49
2017-12-27T22:02:25.925Z,9.43
2017-12-27T22:04:53.384Z,9.45
2017-12-27T22:07:20.858Z,9.48
2017-12-27T22:09:48.372Z,9.49
2017-12-27T22:12:15.798Z,9.48
2017-12-27T22:14:43.271Z,9.49
2017-12-27T22:17:10.723Z,9.49
2017-12-27T22:19:38.179Z,9.51
2017-12-27T22:22:05.663Z,9.47
2017-12-27T22:24:33.119Z,9.53
2017-12-27T22:27:00.548Z,9.52
2017-12-27T22:29:28.013Z,9.47
2017-12-27T22:31:55.809Z,9.47
2017-12-27T22:34:23.273Z,9.44
2017-12-27T22:36:50.743Z,9.53
2017-12-27T22:39:18.209Z,9.69
2017-12-27T22:41:45.767Z,9.65
2017-12-27T22:44:13.241Z,9.60
2017-12-27T22:46:40.706Z,9.58
2017-12-27T22:49:08.173Z,9.68
2017-12-27T22:51:35.685Z,9.59
2017-12-27T22:54:03.152Z,9.61
2017-12-27T22:56:30.677Z,9.58
2017-12-27T22:58:58.139Z,9.61
2017-12-27T23:01:25.596Z,9.58
2017-12-27T23:03:53.157Z,9.51
2017-12-27T23:06:20.684Z,9.52
2017-12-27T23:08:48.138Z,9.58
2017-12-27T23:11:15.591Z,9.74
2017-12-27T23:13:43.064Z,9.71
2017-12-27T23:16:10.537Z,9.78
2017-12-27T23:18:37.991Z,9.69
2017-12-27T23:21:05.473Z,9.67
2017-12-27T23:23:32.984Z,9.74
2017-12-27T23:26:00.440Z,9.72
2017-12-27T23:28:27.904Z,9.77
2017-12-27T23:30:55.413Z,9.72
2017-12-27T23:33:22.883Z,9.85
2017-12-27T23:35:50.347Z,9.81
2017-12-27T23:38:18.042Z,9.66
2017-12-27T23:40:45.518Z,9.70
2017-12-27T23:43:13.043Z,9.71
2017-12-27T23:45:40.511Z,9.77
2017-12-27T23:48:08.032Z,9.71
2017-12-27T23:50:35.625Z,9.66
2017-12-27T23:53:03.080Z,9.59
2017-12-27T23:55:30.552Z,9.56
2017-12-27T23:57:58.051Z,9.57
